createdAt,value
2023-02-05T00:00:20.286Z,6.90
2023-02-05T00:02:52.883Z,8.83
2023-02-05T00:05:22.809Z,6.83
2023-02-05T00:07:52.630Z,7.20
2023-02-05T00:10:22.553Z,6.83
2023-02-05T00:12:52.347Z,6.60
2023-02-05T00:15:22.275Z,7.87
2023-02-05T00:17:54.656Z,6.50
2023-02-05T00:20:24.561Z,8.20
2023-02-05T00:22:57.781Z,6.73
2023-02-05T00:25:27.691Z,8.27
2023-02-05T00:27:57.490Z,6.80
2023-02-05T00:30:28.624Z,10.60
2023-02-05T00:33:01.082Z,8.77
2023-02-05T00:35:30.923Z,9.70
2023-02-05T00:38:00.732Z,7.43
2023-02-05T00:40:30.497Z,7.83
2023-02-05T00:43:00.313Z,9.10
2023-02-05T00:45:35.245Z,8.20
2023-02-05T00:48:08.648Z,8.20
2023-02-05T00:50:38.678Z,9.27
2023-02-05T00:53:10.234Z,11.03
2023-02-05T00:55:40.102Z,7.93
2023-02-05T00:58:09.973Z,7.30
2023-02-05T01:00:39.936Z,9.93
2023-02-05T01:03:12.528Z,7.97
2023-02-05T01:05:43.011Z,7.87
2023-02-05T01:08:14.799Z,9.53
2023-02-05T01:10:47.474Z,8.17
2023-02-05T01:13:18.317Z,9.60
2023-02-05T01:15:48.603Z,9.40
2023-02-05T01:18:21.409Z,9.13
2023-02-05T01:20:51.311Z,9.27
2023-02-05T01:23:21.100Z,10.53
2023-02-05T01:25:51.202Z,7.87
2023-02-05T01:28:21.171Z,9.47
2023-02-05T01:30:52.098Z,9.67
2023-02-05T01:33:24.527Z,9.83
2023-02-05T01:35:54.300Z,11.87
2023-02-05T01:38:24.114Z,12.00
2023-02-05T01:40:54.093Z,12.43
2023-02-05T01:43:24.134Z,10.87
2023-02-05T01:46:08.657Z,11.13
2023-02-05T01:48:45.647Z,10.63
2023-02-05T01:51:18.750Z,11.27
2023-02-05T01:53:51.396Z,12.07
2023-02-05T01:56:25.167Z,13.73
2023-02-05T01:58:59.994Z,9.97
2023-02-05T02:01:30.866Z,11.33
2023-02-05T02:04:04.998Z,9.37
2023-02-05T02:06:36.616Z,13.53
2023-02-05T02:09:09.661Z,9.97
2023-02-05T02:11:43.670Z,13.10
2023-02-05T02:14:14.875Z,10.77
2023-02-05T02:16:44.830Z,15.50
2023-02-05T02:19:24.278Z,13.17
2023-02-05T02:22:15.398Z,12.70
2023-02-05T02:25:20.855Z,16.43
2023-02-05T02:27:57.554Z,12.20
2023-02-05T02:30:31.989Z,15.27
2023-02-05T02:33:10.024Z,18.60
2023-02-05T02:35:47.144Z,15.97
2023-02-05T02:38:24.087Z,20.10
2023-02-05T02:40:56.869Z,17.93
2023-02-05T02:43:34.291Z,14.53
2023-02-05T02:46:08.403Z,19.67
2023-02-05T02:48:50.878Z,14.87
2023-02-05T02:51:25.316Z,18.73
2023-02-05T02:53:58.802Z,16.17
2023-02-05T02:56:32.266Z,15.13
2023-02-05T02:59:09.218Z,16.90
2023-02-05T03:01:52.345Z,18.97
2023-02-05T03:04:28.601Z,14.67
2023-02-05T03:07:03.250Z,15.47
2023-02-05T03:09:43.148Z,17.23
2023-02-05T03:12:13.034Z,14.50
2023-02-05T03:14:45.647Z,16.40
2023-02-05T03:17:18.862Z,16.67
2023-02-05T03:19:49.570Z,16.90
2023-02-05T03:22:19.415Z,18.57
2023-02-05T03:24:49.162Z,15.83
2023-02-05T03:27:19.043Z,16.20
2023-02-05T03:29:52.819Z,16.30
2023-02-05T03:32:38.101Z,19.30
2023-02-05T03:35:29.442Z,22.40
2023-02-05T03:38:14.250Z,18.17
2023-02-05T03:40:50.848Z,20.60
2023-02-05T03:43:34.960Z,18.53
2023-02-05T03:46:18.072Z,18.87
2023-02-05T03:49:04.512Z,19.60
2023-02-05T03:51:42.217Z,19.07
2023-02-05T03:54:19.768Z,23.63
2023-02-05T03:56:58.246Z,19.80
2023-02-05T03:59:29.574Z,20.13
2023-02-05T04:02:04.847Z,22.43
2023-02-05T04:04:34.637Z,21.50
2023-02-05T04:07:05.321Z,21.13
2023-02-05T04:09:35.114Z,19.57
2023-02-05T04:12:04.882Z,27.20
2023-02-05T04:14:34.630Z,23.73
2023-02-05T04:17:07.824Z,25.57
2023-02-05T04:19:37.662Z,24.17
2023-02-05T04:22:07.423Z,17.83
2023-02-05T04:24:37.168Z,19.20
2023-02-05T04:27:06.979Z,18.40
2023-02-05T04:29:36.702Z,18.07
2023-02-05T04:32:09.104Z,21.60
2023-02-05T04:34:38.854Z,19.40
2023-02-05T04:37:08.765Z,17.37
2023-02-05T04:39:38.517Z,18.37
2023-02-05T04:42:08.552Z,19.23
2023-02-05T04:44:38.307Z,20.07
2023-02-05T04:47:10.780Z,17.87
2023-02-05T04:49:40.948Z,21.97
2023-02-05T04:52:10.890Z,20.77
2023-02-05T04:54:40.972Z,15.70
2023-02-05T04:57:10.854Z,17.93
2023-02-05T04:59:40.858Z,18.07
2023-02-05T05:02:13.294Z,17.17
2023-02-05T05:04:43.372Z,19.10
2023-02-05T05:07:13.380Z,13.50
2023-02-05T05:09:43.289Z,11.40
2023-02-05T05:12:13.050Z,12.87
2023-02-05T05:14:42.894Z,20.03
2023-02-05T05:17:15.449Z,15.77
2023-02-05T05:19:45.506Z,17.33
2023-02-05T05:22:15.323Z,15.53
2023-02-05T05:24:45.164Z,11.13
2023-02-05T05:27:15.008Z,17.97
2023-02-05T05:29:45.058Z,12.90
2023-02-05T05:32:17.580Z,12.83
2023-02-05T05:34:47.868Z,11.03
2023-02-05T05:37:17.645Z,10.20
2023-02-05T05:39:59.790Z,8.70
2023-02-05T05:42:41.957Z,14.77
2023-02-05T05:45:12.247Z,9.53
2023-02-05T05:47:44.647Z,9.97
2023-02-05T05:50:14.476Z,10.27
2023-02-05T05:52:44.407Z,15.23
2023-02-05T05:55:14.200Z,10.70
2023-02-05T05:57:43.951Z,12.83
2023-02-05T06:00:15.789Z,12.60
2023-02-05T06:02:48.160Z,12.87
2023-02-05T06:05:17.929Z,11.20
2023-02-05T06:07:47.706Z,9.83
2023-02-05T06:10:17.526Z,13.13
2023-02-05T06:12:47.272Z,11.67
2023-02-05T06:15:17.142Z,8.83
2023-02-05T06:17:49.651Z,14.97
2023-02-05T06:20:19.591Z,15.90
2023-02-05T06:22:49.385Z,11.47
2023-02-05T06:25:19.175Z,13.80
2023-02-05T06:27:48.994Z,7.73
2023-02-05T06:30:19.039Z,11.27
2023-02-05T06:32:51.490Z,16.03
2023-02-05T06:35:22.848Z,12.97
2023-02-05T06:37:52.621Z,13.93
2023-02-05T06:40:22.568Z,12.40
2023-02-05T06:42:52.379Z,10.90
2023-02-05T06:45:22.500Z,7.80
2023-02-05T06:47:56.251Z,7.67
2023-02-05T06:50:26.276Z,10.20
2023-02-05T06:52:56.322Z,8.77
2023-02-05T06:55:26.209Z,9.40
2023-02-05T06:57:56.005Z,12.83
2023-02-05T07:00:26.205Z,9.13
2023-02-05T07:02:58.711Z,10.23
2023-02-05T07:05:28.527Z,11.47
2023-02-05T07:07:59.903Z,15.87
2023-02-05T07:10:29.691Z,16.57
2023-02-05T07:12:59.518Z,14.83
2023-02-05T07:15:29.313Z,14.13
2023-02-05T07:18:01.664Z,16.10
2023-02-05T07:20:31.486Z,18.93
2023-02-05T07:23:01.239Z,16.20
2023-02-05T07:25:36.550Z,11.30
2023-02-05T07:28:06.912Z,16.73
2023-02-05T07:30:36.709Z,14.43
2023-02-05T07:33:09.847Z,15.87
2023-02-05T07:35:40.935Z,15.07
2023-02-05T07:38:11.049Z,19.53
2023-02-05T07:40:42.482Z,19.40
2023-02-05T07:43:12.307Z,23.33
2023-02-05T07:45:42.023Z,17.03
2023-02-05T07:48:14.463Z,28.87
2023-02-05T07:50:47.115Z,17.60
2023-02-05T07:53:17.252Z,25.50
2023-02-05T07:55:47.076Z,26.33
2023-02-05T07:58:17.204Z,25.77
2023-02-05T08:00:47.246Z,21.43
2023-02-05T08:03:19.625Z,18.47
2023-02-05T08:05:49.432Z,23.93
2023-02-05T08:08:19.347Z,18.90
2023-02-05T08:10:49.187Z,24.13
2023-02-05T08:13:18.964Z,22.07
2023-02-05T08:15:50.758Z,16.13
2023-02-05T08:18:23.126Z,20.93
2023-02-05T08:20:55.432Z,18.80
2023-02-05T08:23:25.334Z,15.50
2023-02-05T08:25:56.931Z,22.40
2023-02-05T08:28:28.052Z,25.93
2023-02-05T08:30:58.964Z,27.07
2023-02-05T08:33:31.660Z,26.03
2023-02-05T08:36:01.558Z,25.60
2023-02-05T08:38:31.304Z,28.73
2023-02-05T08:41:01.114Z,26.33
2023-02-05T08:43:31.023Z,23.33
2023-02-05T08:46:00.956Z,22.77
2023-02-05T08:48:33.491Z,25.77
2023-02-05T08:51:03.942Z,28.23
2023-02-05T08:53:33.810Z,23.77
2023-02-05T08:56:06.584Z,21.20
2023-02-05T08:58:36.571Z,25.83
2023-02-05T09:01:08.704Z,25.43
2023-02-05T09:03:41.649Z,23.47
2023-02-05T09:06:13.752Z,27.50
2023-02-05T09:08:46.969Z,21.07
2023-02-05T09:11:17.072Z,23.97
2023-02-05T09:13:46.848Z,33.23
2023-02-05T09:16:16.762Z,17.77
2023-02-05T09:18:49.338Z,9.33
2023-02-05T09:21:19.088Z,13.10
2023-02-05T09:23:49.072Z,10.33
2023-02-05T09:26:18.933Z,13.50
2023-02-05T09:28:48.983Z,19.07
2023-02-05T09:31:20.244Z,18.23
2023-02-05T09:33:52.756Z,27.50
2023-02-05T09:36:24.530Z,28.17
2023-02-05T09:39:11.747Z,20.93
2023-02-05T09:41:50.125Z,30.60
2023-02-05T09:44:30.310Z,31.53
2023-02-05T09:47:08.596Z,35.73
2023-02-05T09:49:46.786Z,28.27
2023-02-05T09:52:22.774Z,32.87
2023-02-05T09:54:58.240Z,29.97
2023-02-05T09:57:35.766Z,35.43
2023-02-05T10:00:08.404Z,35.50
2023-02-05T10:02:48.027Z,38.97
2023-02-05T10:05:25.022Z,23.30
2023-02-05T10:08:01.791Z,22.47
2023-02-05T10:10:39.468Z,14.00
2023-02-05T10:13:30.311Z,10.77
2023-02-05T10:16:20.951Z,14.57
2023-02-05T10:19:06.522Z,13.30
2023-02-05T10:21:59.113Z,13.97
2023-02-05T10:24:48.740Z,23.27
2023-02-05T10:27:23.688Z,17.93
2023-02-05T10:30:03.712Z,13.47
2023-02-05T10:32:43.089Z,22.40
2023-02-05T10:35:26.582Z,18.00
2023-02-05T10:37:59.958Z,17.57
2023-02-05T10:40:35.321Z,17.30
2023-02-05T10:43:13.554Z,18.70
2023-02-05T10:45:43.322Z,25.00
2023-02-05T10:48:32.031Z,22.53
2023-02-05T10:51:04.854Z,28.50
2023-02-05T10:53:37.882Z,23.07
2023-02-05T10:56:09.173Z,25.77
2023-02-05T10:58:47.170Z,27.67
2023-02-05T11:01:19.952Z,28.27
2023-02-05T11:03:56.892Z,29.63
2023-02-05T11:06:29.479Z,33.07
2023-02-05T11:09:02.398Z,29.87
2023-02-05T11:11:34.914Z,28.43
2023-02-05T11:14:08.983Z,32.33
2023-02-05T11:16:41.800Z,35.37
2023-02-05T11:19:24.212Z,39.10
2023-02-05T11:21:57.379Z,31.23
2023-02-05T11:24:42.697Z,25.00
2023-02-05T11:27:33.484Z,24.10
2023-02-05T11:30:42.109Z,28.17
2023-02-05T11:33:28.519Z,29.10
2023-02-05T11:36:01.062Z,29.73
2023-02-05T11:38:39.852Z,25.23
2023-02-05T11:41:13.634Z,28.93
2023-02-05T11:43:51.777Z,27.97
2023-02-05T11:46:24.195Z,27.80
2023-02-05T11:49:00.519Z,33.47
2023-02-05T11:51:44.674Z,31.53
2023-02-05T11:54:22.506Z,30.50
2023-02-05T11:57:27.075Z,30.13
2023-02-05T11:59:59.927Z,30.30
2023-02-05T12:02:36.150Z,28.63
2023-02-05T12:05:15.764Z,25.07
2023-02-05T12:07:51.390Z,26.93
2023-02-05T12:10:28.916Z,34.47
2023-02-05T12:13:10.104Z,29.93
2023-02-05T12:15:47.736Z,29.40
2023-02-05T12:18:29.563Z,27.23
2023-02-05T12:21:14.610Z,29.07
2023-02-05T12:24:07.785Z,24.57
2023-02-05T12:26:41.119Z,27.50
2023-02-05T12:29:32.317Z,21.00
2023-02-05T12:32:09.201Z,25.60
2023-02-05T12:34:48.657Z,31.53
2023-02-05T12:37:36.361Z,30.43
2023-02-05T12:40:19.168Z,35.27
2023-02-05T12:42:55.228Z,33.17
2023-02-05T12:45:51.100Z,31.97
2023-02-05T12:48:40.171Z,27.10
2023-02-05T12:51:24.656Z,29.37
2023-02-05T12:54:05.930Z,24.90
2023-02-05T12:56:52.335Z,35.50
2023-02-05T12:59:33.790Z,27.10
2023-02-05T13:02:10.144Z,26.97
2023-02-05T13:04:44.340Z,27.87
2023-02-05T13:07:29.387Z,36.20
2023-02-05T13:10:03.333Z,31.87
2023-02-05T13:12:38.613Z,23.43
2023-02-05T13:15:19.592Z,21.10
2023-02-05T13:18:00.160Z,30.30
2023-02-05T13:20:47.412Z,28.80
2023-02-05T13:23:30.426Z,27.17
2023-02-05T13:26:13.057Z,23.03
2023-02-05T13:28:47.729Z,22.70
2023-02-05T13:31:30.650Z,30.40
2023-02-05T13:34:06.897Z,23.87
2023-02-05T13:36:56.149Z,26.27
2023-02-05T13:40:04.899Z,26.07
2023-02-05T13:43:13.999Z,26.13
2023-02-05T13:46:26.265Z,30.30
2023-02-05T13:49:30.034Z,23.00
2023-02-05T13:52:21.449Z,25.70
2023-02-05T13:55:18.993Z,28.00
2023-02-05T13:58:20.531Z,29.10
2023-02-05T14:01:01.396Z,36.40
2023-02-05T14:03:41.250Z,29.27
2023-02-05T14:06:30.159Z,31.63
2023-02-05T14:09:04.361Z,28.43
2023-02-05T14:11:55.959Z,28.70
2023-02-05T14:14:31.696Z,35.97
2023-02-05T14:17:03.060Z,30.17
2023-02-05T14:19:58.533Z,30.13
2023-02-05T14:22:44.829Z,33.43
2023-02-05T14:25:50.550Z,28.87
2023-02-05T14:28:48.171Z,25.40
2023-02-05T14:31:48.823Z,34.80
2023-02-05T14:34:49.301Z,37.00
2023-02-05T14:37:33.892Z,24.87
2023-02-05T14:40:25.075Z,40.47
2023-02-05T14:43:09.522Z,35.30
2023-02-05T14:45:46.632Z,36.30
2023-02-05T14:48:29.427Z,31.87
2023-02-05T14:51:08.625Z,39.57
2023-02-05T14:53:39.967Z,42.20
2023-02-05T14:56:31.732Z,38.13
2023-02-05T14:59:07.432Z,36.40
2023-02-05T15:01:50.840Z,36.90
2023-02-05T15:04:42.842Z,33.30
2023-02-05T15:07:16.453Z,35.57
2023-02-05T15:09:50.793Z,37.03
2023-02-05T15:12:51.571Z,34.40
2023-02-05T15:15:33.707Z,31.10
2023-02-05T15:18:25.035Z,30.93
2023-02-05T15:20:57.672Z,34.33
2023-02-05T15:23:37.976Z,36.10
2023-02-05T15:26:10.319Z,33.07
2023-02-05T15:28:45.352Z,28.63
2023-02-05T15:31:32.000Z,32.63
2023-02-05T15:34:09.235Z,33.67
2023-02-05T15:36:46.143Z,31.63
2023-02-05T15:39:24.311Z,36.00
2023-02-05T15:41:58.007Z,33.63
2023-02-05T15:44:33.863Z,33.53
2023-02-05T15:47:06.617Z,32.57
2023-02-05T15:49:41.130Z,27.67
2023-02-05T15:52:11.247Z,27.83
2023-02-05T15:54:41.047Z,32.80
2023-02-05T15:57:16.132Z,33.90
2023-02-05T15:59:48.630Z,26.00
2023-02-05T16:02:21.407Z,26.07
2023-02-05T16:04:58.477Z,30.23
2023-02-05T16:07:32.535Z,33.30
2023-02-05T16:10:05.008Z,36.30
2023-02-05T16:12:34.784Z,25.33
2023-02-05T16:15:09.803Z,33.00
2023-02-05T16:17:45.752Z,36.13
2023-02-05T16:20:26.804Z,26.27
2023-02-05T16:23:00.047Z,27.33
2023-02-05T16:25:40.006Z,27.33
2023-02-05T16:28:16.452Z,27.53
2023-02-05T16:30:53.057Z,33.83
2023-02-05T16:33:33.600Z,27.87
2023-02-05T16:36:05.972Z,31.23
2023-02-05T16:38:38.488Z,28.73
2023-02-05T16:41:27.103Z,33.20
2023-02-05T16:43:58.735Z,33.63
2023-02-05T16:46:32.467Z,33.57
2023-02-05T16:49:03.727Z,42.77
2023-02-05T16:51:37.853Z,39.97
2023-02-05T16:54:30.211Z,39.47
2023-02-05T16:57:06.064Z,34.20
2023-02-05T16:59:43.368Z,36.63
2023-02-05T17:02:29.320Z,39.07
2023-02-05T17:05:01.662Z,39.43
2023-02-05T17:07:33.201Z,40.83
2023-02-05T17:10:20.092Z,41.77
2023-02-05T17:12:58.777Z,37.83
2023-02-05T17:15:42.624Z,30.37
2023-02-05T17:18:31.111Z,29.17
2023-02-05T17:21:26.811Z,36.27
2023-02-05T17:23:59.567Z,35.23
2023-02-05T17:26:43.577Z,27.10
2023-02-05T17:29:18.686Z,32.90
2023-02-05T17:31:48.630Z,33.83
2023-02-05T17:34:21.200Z,41.53
2023-02-05T17:36:51.665Z,31.70
2023-02-05T17:39:21.723Z,32.50
2023-02-05T17:42:08.783Z,37.30
2023-02-05T17:45:01.392Z,42.17
2023-02-05T17:47:46.793Z,40.00
2023-02-05T17:50:20.294Z,33.40
2023-02-05T17:52:50.173Z,33.13
2023-02-05T17:55:22.610Z,48.23
2023-02-05T17:57:52.402Z,34.30
2023-02-05T18:00:25.091Z,35.17
2023-02-05T18:02:55.576Z,39.70
2023-02-05T18:05:32.543Z,42.57
2023-02-05T18:08:03.407Z,33.73
2023-02-05T18:10:35.222Z,36.10
2023-02-05T18:13:05.661Z,30.10
2023-02-05T18:15:35.974Z,36.27
2023-02-05T18:18:05.985Z,32.40
2023-02-05T18:20:39.087Z,40.43
2023-02-05T18:23:10.903Z,24.37
2023-02-05T18:25:42.212Z,31.80
2023-02-05T18:31:13.275Z,39.87
2023-02-05T18:33:43.545Z,24.60
2023-02-05T18:36:17.658Z,32.27
2023-02-05T18:38:47.616Z,34.23
2023-02-05T18:41:19.674Z,23.63
2023-02-05T18:43:49.602Z,30.87
2023-02-05T18:46:21.307Z,30.40
2023-02-05T18:48:52.168Z,28.73
2023-02-05T18:51:27.543Z,32.70
2023-02-05T18:53:57.636Z,23.77
2023-02-05T18:56:29.722Z,23.60
2023-02-05T18:59:03.166Z,23.37
2023-02-05T19:01:41.359Z,25.40
2023-02-05T19:04:34.232Z,39.70
2023-02-05T19:07:06.820Z,27.03
2023-02-05T19:09:37.125Z,33.37
2023-02-05T19:12:07.572Z,28.27
2023-02-05T19:14:37.550Z,26.40
2023-02-05T19:17:08.015Z,26.97
2023-02-05T19:19:37.923Z,23.27
2023-02-05T19:22:10.911Z,29.83
2023-02-05T19:24:40.863Z,33.27
2023-02-05T19:27:10.835Z,30.07
2023-02-05T19:29:41.305Z,23.47
2023-02-05T19:32:11.314Z,20.67
2023-02-05T19:34:43.464Z,32.03
2023-02-05T19:37:15.977Z,21.50
2023-02-05T19:39:49.198Z,15.60
2023-02-05T19:42:19.060Z,28.33
2023-02-05T19:44:48.865Z,19.10
2023-02-05T19:47:19.012Z,23.53
2023-02-05T19:49:48.874Z,24.57
2023-02-05T19:52:21.219Z,19.60
2023-02-05T19:54:50.990Z,21.70
2023-02-05T19:57:20.789Z,25.77
2023-02-05T19:59:51.001Z,31.50
2023-02-05T20:02:21.119Z,29.33
2023-02-05T20:04:51.010Z,29.60
2023-02-05T20:07:23.609Z,32.77
2023-02-05T20:09:53.459Z,26.43
2023-02-05T20:12:23.472Z,18.80
2023-02-05T20:14:53.360Z,25.27
2023-02-05T20:17:23.258Z,22.30
2023-02-05T20:20:02.521Z,17.37
2023-02-05T20:22:41.708Z,26.73
2023-02-05T20:25:11.943Z,15.03
2023-02-05T20:27:41.852Z,22.57
2023-02-05T20:30:30.610Z,21.63
2023-02-05T20:33:00.572Z,17.13
2023-02-05T20:35:31.594Z,28.83
2023-02-05T20:38:04.539Z,24.87
2023-02-05T20:40:34.610Z,25.70
2023-02-05T20:43:07.240Z,19.00
2023-02-05T20:45:37.279Z,24.50
2023-02-05T20:48:07.547Z,29.47
2023-02-05T20:50:37.520Z,19.20
2023-02-05T20:53:10.316Z,22.40
2023-02-05T20:55:40.285Z,32.00
2023-02-05T20:58:10.227Z,15.03
2023-02-05T21:00:40.478Z,22.23
2023-02-05T21:03:10.433Z,25.27
2023-02-05T21:05:40.403Z,25.83
2023-02-05T21:08:13.189Z,21.20
2023-02-05T21:10:43.097Z,17.93
2023-02-05T21:13:13.046Z,30.73
2023-02-05T21:15:42.966Z,25.37
2023-02-05T21:18:13.671Z,27.20
2023-02-05T21:20:43.535Z,19.73
2023-02-05T21:23:16.168Z,25.97
2023-02-05T21:25:46.756Z,27.10
2023-02-05T21:28:18.974Z,37.83
2023-02-05T21:30:51.237Z,24.63
2023-02-05T21:33:21.294Z,21.67
2023-02-05T21:35:51.052Z,25.57
2023-02-05T21:38:23.409Z,22.83
2023-02-05T21:40:54.001Z,29.97
2023-02-05T21:43:23.748Z,23.20
2023-02-05T21:45:53.546Z,26.87
2023-02-05T21:48:23.395Z,20.50
2023-02-05T21:50:53.194Z,16.47
2023-02-05T21:53:25.577Z,24.80
2023-02-05T21:55:55.382Z,26.20
2023-02-05T21:58:25.272Z,18.60
2023-02-05T22:00:55.112Z,27.53
2023-02-05T22:03:24.891Z,27.73
2023-02-05T22:05:54.681Z,21.40
2023-02-05T22:08:27.097Z,19.03
2023-02-05T22:10:56.837Z,35.87
2023-02-05T22:13:26.678Z,20.90
2023-02-05T22:16:04.722Z,29.60
2023-02-05T22:18:34.535Z,27.77
2023-02-05T22:21:12.186Z,23.80
2023-02-05T22:23:48.979Z,21.20
2023-02-05T22:26:19.970Z,28.27
2023-02-05T22:28:49.978Z,24.73
2023-02-05T22:31:21.505Z,20.93
2023-02-05T22:33:52.594Z,16.97
2023-02-05T22:36:24.017Z,15.80
2023-02-05T22:38:56.951Z,26.00
2023-02-05T22:41:30.077Z,23.50
2023-02-05T22:44:01.640Z,25.43
2023-02-05T22:46:33.567Z,22.23
2023-02-05T22:49:05.091Z,19.00
2023-02-05T22:51:37.513Z,20.03
2023-02-05T22:54:10.980Z,22.70
2023-02-05T22:56:41.338Z,25.43
2023-02-05T22:59:11.426Z,19.17
2023-02-05T23:01:41.951Z,23.00
2023-02-05T23:04:12.836Z,22.53
2023-02-05T23:06:45.292Z,20.87
2023-02-05T23:09:20.765Z,18.40
2023-02-05T23:11:50.652Z,15.43
2023-02-05T23:14:21.572Z,21.20
2023-02-05T23:16:51.697Z,25.60
2023-02-05T23:19:23.241Z,20.93
2023-02-05T23:21:53.111Z,17.20
2023-02-05T23:24:25.504Z,18.27
2023-02-05T23:26:55.575Z,23.20
2023-02-05T23:29:27.185Z,22.33
2023-02-05T23:31:56.965Z,20.80
2023-02-05T23:34:26.719Z,21.43
2023-02-05T23:36:56.635Z,23.77
2023-02-05T23:39:29.041Z,25.23
2023-02-05T23:41:58.816Z,15.60
2023-02-05T23:44:28.807Z,18.87
2023-02-05T23:46:58.550Z,21.57
2023-02-05T23:49:28.673Z,26.30
2023-02-05T23:51:59.214Z,16.03
2023-02-05T23:54:31.668Z,21.83
2023-02-05T23:57:01.434Z,13.93
2023-02-05T23:59:31.338Z,18.93
